createdAt,value
2023-02-08T13:09:45.803Z,12.82
2023-02-08T13:12:56.061Z,13.48
2023-02-08T13:16:02.635Z,11.98
2023-02-08T13:19:35.206Z,12.50
2023-02-08T13:22:41.686Z,15.38
2023-02-08T13:25:44.717Z,12.90
2023-02-08T13:28:49.258Z,14.00
2023-02-08T13:31:59.076Z,13.70
2023-02-08T13:35:07.080Z,11.80
2023-02-08T13:38:27.230Z,14.15
2023-02-08T13:41:30.709Z,12.90
2023-02-08T13:44:37.101Z,11.38
2023-02-08T13:47:48.928Z,12.15
2023-02-08T13:50:54.625Z,12.23
2023-02-08T13:53:56.245Z,11.90
2023-02-08T13:56:58.274Z,11.90
2023-02-08T14:00:22.988Z,12.38
2023-02-08T14:03:31.662Z,12.20
2023-02-08T14:06:37.081Z,12.23
2023-02-08T14:10:08.248Z,12.40
2023-02-08T14:13:36.665Z,12.32
2023-02-08T14:16:40.691Z,13.60
2023-02-08T14:19:43.855Z,13.50
2023-02-08T14:22:54.999Z,11.70
2023-02-08T14:25:59.674Z,11.70
2023-02-08T14:29:04.668Z,12.25
2023-02-08T14:32:07.131Z,10.85
2023-02-08T14:35:11.849Z,10.38
2023-02-08T14:38:19.660Z,10.47
2023-02-08T14:41:45.967Z,9.73
2023-02-08T14:44:57.866Z,24.30
2023-02-08T14:48:17.639Z,12.65
2023-02-08T14:51:26.457Z,11.05
2023-02-08T14:54:36.559Z,10.80
2023-02-08T14:57:40.750Z,12.55
2023-02-08T15:00:43.170Z,11.52
2023-02-08T15:03:47.557Z,14.60
2023-02-08T15:07:28.014Z,11.48
2023-02-08T15:10:32.116Z,11.83
2023-02-08T15:13:34.462Z,12.30
2023-02-08T15:16:42.741Z,12.88
2023-02-08T15:19:46.227Z,9.80
2023-02-08T15:22:48.002Z,11.82
2023-02-08T15:25:58.588Z,10.90
2023-02-08T15:29:01.050Z,10.80
2023-02-08T15:32:02.742Z,11.85
2023-02-08T15:35:05.481Z,12.52
2023-02-08T15:38:20.132Z,11.68
2023-02-08T15:41:34.324Z,11.10
2023-02-08T15:44:36.029Z,12.98
2023-02-08T15:47:39.874Z,12.90
2023-02-08T15:50:41.888Z,13.13
2023-02-08T15:53:49.409Z,11.13
2023-02-08T15:57:07.942Z,12.27
2023-02-08T16:00:25.298Z,17.52
2023-02-08T16:03:28.081Z,19.27
2023-02-08T16:06:38.036Z,18.08
2023-02-08T16:09:39.676Z,21.17
2023-02-08T16:12:41.276Z,14.43
2023-02-08T16:15:46.000Z,14.55
2023-02-08T16:19:02.057Z,15.88
2023-02-08T16:22:12.929Z,15.02
2023-02-08T16:25:36.669Z,15.80
2023-02-08T16:28:39.372Z,13.67
2023-02-08T16:31:41.324Z,14.30
2023-02-08T16:34:43.235Z,16.58
2023-02-08T16:37:44.997Z,15.70
2023-02-08T16:40:58.046Z,15.30
2023-02-08T16:44:17.287Z,13.60
2023-02-08T16:47:36.511Z,15.35
2023-02-08T16:50:38.505Z,13.27
2023-02-08T16:53:42.804Z,15.85
2023-02-08T16:56:46.659Z,17.13
2023-02-08T16:59:48.341Z,14.73
2023-02-08T17:02:51.122Z,15.20
2023-02-08T17:05:52.881Z,16.35
2023-02-08T17:08:54.573Z,15.23
2023-02-08T17:11:56.171Z,15.57
2023-02-08T17:14:57.852Z,14.83
2023-02-08T17:17:59.525Z,14.75
2023-02-08T17:21:02.064Z,15.23
2023-02-08T17:24:04.437Z,14.95
2023-02-08T17:27:06.124Z,16.52
2023-02-08T17:30:24.503Z,15.73
2023-02-08T17:33:28.442Z,18.17
2023-02-08T17:36:35.053Z,14.00
2023-02-08T17:39:36.634Z,16.80
2023-02-08T17:42:38.410Z,14.77
2023-02-08T17:45:42.178Z,16.47
2023-02-08T17:48:45.710Z,15.70
2023-02-08T17:51:48.895Z,16.25
2023-02-08T17:54:50.572Z,14.75
2023-02-08T17:57:52.947Z,14.77
2023-02-08T18:00:56.107Z,16.93
2023-02-08T18:04:01.028Z,15.38
2023-02-08T18:07:02.949Z,15.70
2023-02-08T18:10:04.797Z,16.85
2023-02-08T18:13:06.475Z,16.10
2023-02-08T18:16:14.360Z,16.93
2023-02-08T18:19:17.140Z,15.18
2023-02-08T18:22:21.007Z,16.60
2023-02-08T18:25:23.180Z,20.92
2023-02-08T18:28:24.878Z,23.73
2023-02-08T18:31:26.646Z,16.07
2023-02-08T18:34:28.327Z,18.08
2023-02-08T18:37:30.132Z,19.88
2023-02-08T18:40:32.329Z,21.33
2023-02-08T18:43:35.150Z,20.50
2023-02-08T18:46:37.320Z,20.50
2023-02-08T18:49:40.898Z,18.83
2023-02-08T18:52:42.713Z,18.35
2023-02-08T18:55:52.672Z,22.63
2023-02-08T18:58:55.708Z,19.70
2023-02-08T19:01:57.383Z,17.40
2023-02-08T19:04:59.031Z,18.98
2023-02-08T19:08:00.644Z,16.80
2023-02-08T19:11:02.255Z,17.52
2023-02-08T19:14:10.221Z,17.55
2023-02-08T19:17:14.780Z,20.73
2023-02-08T19:20:16.694Z,18.30
2023-02-08T19:23:18.372Z,19.75
2023-02-08T19:26:22.549Z,19.98
2023-02-08T19:29:24.306Z,18.50
2023-02-08T19:32:25.998Z,21.77
2023-02-08T19:35:27.677Z,22.20
2023-02-08T19:38:29.349Z,18.38
2023-02-08T19:41:39.491Z,20.52
2023-02-08T19:44:41.241Z,20.13
2023-02-08T19:47:50.972Z,21.20
2023-02-08T19:51:00.310Z,21.10
2023-02-08T19:54:03.902Z,22.25
2023-02-08T19:57:05.605Z,22.58
2023-02-08T20:00:17.535Z,23.95
2023-02-08T20:03:24.160Z,22.33
2023-02-08T20:06:30.096Z,21.10
2023-02-08T20:09:31.815Z,19.70
2023-02-08T20:12:33.541Z,21.63
2023-02-08T20:15:35.194Z,20.65
2023-02-08T20:18:36.941Z,21.13
2023-02-08T20:21:40.326Z,21.73
2023-02-08T20:24:42.030Z,22.60
2023-02-08T20:27:43.649Z,23.55
2023-02-08T20:30:45.372Z,21.70
2023-02-08T20:33:47.113Z,22.03
2023-02-08T20:37:06.732Z,21.40
2023-02-08T20:40:11.997Z,26.48
2023-02-08T20:43:13.594Z,21.50
2023-02-08T20:46:24.191Z,22.52
2023-02-08T20:49:26.976Z,22.70
2023-02-08T20:52:28.625Z,21.15
2023-02-08T20:55:30.401Z,22.55
2023-02-08T20:58:32.302Z,22.67
2023-02-08T21:01:34.960Z,22.33
2023-02-08T21:04:36.727Z,22.57
2023-02-08T21:07:40.373Z,19.05
2023-02-08T21:10:42.433Z,22.05
2023-02-08T21:13:44.241Z,20.38
2023-02-08T21:16:51.203Z,22.70
2023-02-08T21:19:52.924Z,18.93
2023-02-08T21:22:54.568Z,22.75
2023-02-08T21:25:58.011Z,20.50
2023-02-08T21:29:00.417Z,23.15
2023-02-08T21:32:02.321Z,27.00
2023-02-08T21:35:04.140Z,25.67
2023-02-08T21:38:08.521Z,24.05
2023-02-08T21:41:21.510Z,22.65
2023-02-08T21:44:23.231Z,23.73
2023-02-08T21:47:25.019Z,22.92
2023-02-08T21:50:46.521Z,22.07
2023-02-08T21:54:17.618Z,23.10
2023-02-08T21:57:25.857Z,26.25
2023-02-08T22:00:27.572Z,33.03
2023-02-08T22:03:31.304Z,24.08
2023-02-08T22:06:32.912Z,25.77
2023-02-08T22:09:35.998Z,20.80
2023-02-08T22:12:40.300Z,22.40
2023-02-08T22:15:41.976Z,22.27
2023-02-08T22:18:43.783Z,21.48
2023-02-08T22:21:45.407Z,21.60
2023-02-08T22:24:47.088Z,22.02
2023-02-08T22:27:48.783Z,20.15
2023-02-08T22:30:50.906Z,20.90
2023-02-08T22:33:53.713Z,21.13
2023-02-08T22:36:55.412Z,21.07
2023-02-08T22:39:57.070Z,26.08
2023-02-08T22:42:58.773Z,24.98
2023-02-08T22:46:01.303Z,24.95
2023-02-08T22:49:03.118Z,25.17
2023-02-08T22:52:06.321Z,23.93
2023-02-08T22:55:08.184Z,24.02
2023-02-08T22:58:09.766Z,23.70
2023-02-08T23:01:16.255Z,19.73
2023-02-08T23:04:17.931Z,20.88
2023-02-08T23:07:19.917Z,24.03
2023-02-08T23:10:21.508Z,21.83
2023-02-08T23:13:23.155Z,23.23
2023-02-08T23:16:25.192Z,23.90
2023-02-08T23:19:27.214Z,22.92
2023-02-08T23:22:28.793Z,23.67
2023-02-08T23:25:30.396Z,25.60
2023-02-08T23:28:32.441Z,23.77
2023-02-08T23:31:34.291Z,25.48
2023-02-08T23:34:36.026Z,23.45
2023-02-08T23:37:37.963Z,24.60
2023-02-08T23:40:42.986Z,24.13
2023-02-08T23:43:44.942Z,24.02
2023-02-08T23:46:46.590Z,26.65
2023-02-08T23:49:48.533Z,26.45
2023-02-08T23:52:50.240Z,24.20
2023-02-08T23:56:14.051Z,28.02
2023-02-08T23:59:15.679Z,26.55
